sensor_id;sensor_type;location;lat;lon;timestamp;pressure;altitude;pressure_sealevel;temperature;humidity
48015;BME280;33780;51.034;7.120;2023-03-03T00:00:37;101366.59;;;4.02;57.26
48015;BME280;33780;51.034;7.120;2023-03-03T00:03:05;101357.94;;;3.98;57.40
48015;BME280;33780;51.034;7.120;2023-03-03T00:05:32;101360.75;;;3.95;57.32
48015;BME280;33780;51.034;7.120;2023-03-03T00:07:58;101373.31;;;3.90;57.34
48015;BME280;33780;51.034;7.120;2023-03-03T00:10:23;101366.47;;;3.86;57.75
48015;BME280;33780;51.034;7.120;2023-03-03T00:12:49;101366.69;;;3.81;58.08
48015;BME280;33780;51.034;7.120;2023-03-03T00:15:17;101373.00;;;3.79;57.99
48015;BME280;33780;51.034;7.120;2023-03-03T00:17:42;101365.25;;;3.74;57.32
48015;BME280;33780;51.034;7.120;2023-03-03T00:20:34;101375.91;;;3.73;58.22
48015;BME280;33780;51.034;7.120;2023-03-03T00:23:12;101374.34;;;3.69;58.20
48015;BME280;33780;51.034;7.120;2023-03-03T00:25:42;101362.81;;;3.70;57.09
48015;BME280;33780;51.034;7.120;2023-03-03T00:30:48;101378.94;;;3.65;57.53
48015;BME280;33780;51.034;7.120;2023-03-03T00:33:33;101386.22;;;3.60;57.74
48015;BME280;33780;51.034;7.120;2023-03-03T00:38:40;101390.00;;;3.54;57.63
48015;BME280;33780;51.034;7.120;2023-03-03T00:41:26;101391.06;;;3.50;58.00
48015;BME280;33780;51.034;7.120;2023-03-03T00:43:53;101398.22;;;3.48;58.10
48015;BME280;33780;51.034;7.120;2023-03-03T00:46:21;101397.44;;;3.46;57.89
48015;BME280;33780;51.034;7.120;2023-03-03T00:48:49;101398.44;;;3.44;57.82
48015;BME280;33780;51.034;7.120;2023-03-03T00:51:26;101396.81;;;3.41;58.17
48015;BME280;33780;51.034;7.120;2023-03-03T00:53:53;101394.19;;;3.40;58.23
48015;BME280;33780;51.034;7.120;2023-03-03T00:56:19;101396.13;;;3.36;58.19
48015;BME280;33780;51.034;7.120;2023-03-03T00:58:44;101395.41;;;3.32;57.74
48015;BME280;33780;51.034;7.120;2023-03-03T01:01:12;101393.69;;;3.31;57.87
48015;BME280;33780;51.034;7.120;2023-03-03T01:03:38;101399.06;;;3.30;58.32
48015;BME280;33780;51.034;7.120;2023-03-03T01:06:03;101408.91;;;3.26;58.53
48015;BME280;33780;51.034;7.120;2023-03-03T01:08:28;101408.16;;;3.23;58.45
48015;BME280;33780;51.034;7.120;2023-03-03T01:10:56;101403.03;;;3.20;58.31
48015;BME280;33780;51.034;7.120;2023-03-03T01:13:26;101407.47;;;3.19;58.10
48015;BME280;33780;51.034;7.120;2023-03-03T01:15:53;101410.16;;;3.18;58.36
48015;BME280;33780;51.034;7.120;2023-03-03T01:18:18;101411.09;;;3.17;58.48
48015;BME280;33780;51.034;7.120;2023-03-03T01:20:44;101406.81;;;3.14;58.10
48015;BME280;33780;51.034;7.120;2023-03-03T01:23:10;101407.81;;;3.12;58.51
48015;BME280;33780;51.034;7.120;2023-03-03T01:25:35;101413.31;;;3.07;58.32
48015;BME280;33780;51.034;7.120;2023-03-03T01:28:01;101405.47;;;3.04;58.39
48015;BME280;33780;51.034;7.120;2023-03-03T01:30:27;101410.91;;;3.01;58.49
48015;BME280;33780;51.034;7.120;2023-03-03T01:32:52;101413.63;;;2.99;58.60
48015;BME280;33780;51.034;7.120;2023-03-03T01:35:18;101407.53;;;2.97;58.97
48015;BME280;33780;51.034;7.120;2023-03-03T01:37:43;101409.47;;;2.94;58.39
48015;BME280;33780;51.034;7.120;2023-03-03T01:40:20;101405.16;;;2.91;59.07
48015;BME280;33780;51.034;7.120;2023-03-03T01:42:46;101412.31;;;2.89;58.78
48015;BME280;33780;51.034;7.120;2023-03-03T01:45:22;101405.41;;;2.85;58.84
48015;BME280;33780;51.034;7.120;2023-03-03T01:48:01;101403.91;;;2.80;59.23
48015;BME280;33780;51.034;7.120;2023-03-03T01:50:55;101404.97;;;2.76;59.06
48015;BME280;33780;51.034;7.120;2023-03-03T01:53:29;101405.16;;;2.71;59.24
48015;BME280;33780;51.034;7.120;2023-03-03T01:55:56;101402.59;;;2.69;58.82
48015;BME280;33780;51.034;7.120;2023-03-03T01:58:27;101411.47;;;2.67;58.97
48015;BME280;33780;51.034;7.120;2023-03-03T02:01:00;101407.13;;;2.66;58.96
48015;BME280;33780;51.034;7.120;2023-03-03T02:03:27;101408.03;;;2.65;59.31
48015;BME280;33780;51.034;7.120;2023-03-03T02:05:55;101414.31;;;2.62;59.30
48015;BME280;33780;51.034;7.120;2023-03-03T02:08:25;101416.25;;;2.59;59.46
48015;BME280;33780;51.034;7.120;2023-03-03T02:10:52;101422.38;;;2.59;59.27
48015;BME280;33780;51.034;7.120;2023-03-03T02:13:18;101414.59;;;2.56;59.05
48015;BME280;33780;51.034;7.120;2023-03-03T02:15:44;101411.16;;;2.54;59.51
48015;BME280;33780;51.034;7.120;2023-03-03T02:18:12;101409.50;;;2.52;59.32
48015;BME280;33780;51.034;7.120;2023-03-03T02:21:07;101411.31;;;2.50;59.69
48015;BME280;33780;51.034;7.120;2023-03-03T02:24:04;101403.53;;;2.47;59.67
48015;BME280;33780;51.034;7.120;2023-03-03T02:26:35;101407.09;;;2.46;59.60
48015;BME280;33780;51.034;7.120;2023-03-03T02:29:02;101415.03;;;2.46;59.34
48015;BME280;33780;51.034;7.120;2023-03-03T02:31:29;101408.88;;;2.45;59.38
48015;BME280;33780;51.034;7.120;2023-03-03T02:33:55;101409.81;;;2.44;59.29
48015;BME280;33780;51.034;7.120;2023-03-03T02:36:26;101406.38;;;2.42;59.49
48015;BME280;33780;51.034;7.120;2023-03-03T02:39:04;101417.00;;;2.40;59.46
48015;BME280;33780;51.034;7.120;2023-03-03T02:41:54;101417.06;;;2.39;59.51
48015;BME280;33780;51.034;7.120;2023-03-03T02:44:25;101411.84;;;2.37;59.56
48015;BME280;33780;51.034;7.120;2023-03-03T02:46:52;101427.69;;;2.37;59.21
48015;BME280;33780;51.034;7.120;2023-03-03T02:49:20;101427.69;;;2.37;60.09
48015;BME280;33780;51.034;7.120;2023-03-03T02:51:46;101429.41;;;2.38;60.24
48015;BME280;33780;51.034;7.120;2023-03-03T02:54:12;101430.19;;;2.40;60.13
48015;BME280;33780;51.034;7.120;2023-03-03T02:56:38;101433.63;;;2.42;60.19
48015;BME280;33780;51.034;7.120;2023-03-03T02:59:04;101422.22;;;2.42;61.14
48015;BME280;33780;51.034;7.120;2023-03-03T03:01:30;101413.38;;;2.43;61.33
48015;BME280;33780;51.034;7.120;2023-03-03T03:04:11;101415.03;;;2.46;61.25
48015;BME280;33780;51.034;7.120;2023-03-03T03:06:37;101407.88;;;2.48;61.00
48015;BME280;33780;51.034;7.120;2023-03-03T03:09:04;101412.25;;;2.49;62.05
48015;BME280;33780;51.034;7.120;2023-03-03T03:11:29;101406.91;;;2.50;62.39
48015;BME280;33780;51.034;7.120;2023-03-03T03:13:55;101408.63;;;2.51;62.51
48015;BME280;33780;51.034;7.120;2023-03-03T03:16:20;101409.38;;;2.55;62.60
48015;BME280;33780;51.034;7.120;2023-03-03T03:18:45;101406.66;;;2.56;62.15
48015;BME280;33780;51.034;7.120;2023-03-03T03:21:12;101411.88;;;2.58;62.77
48015;BME280;33780;51.034;7.120;2023-03-03T03:23:38;101409.16;;;2.59;63.07
48015;BME280;33780;51.034;7.120;2023-03-03T03:26:04;101404.75;;;2.60;62.92
48015;BME280;33780;51.034;7.120;2023-03-03T03:28:30;101405.53;;;2.62;62.71
48015;BME280;33780;51.034;7.120;2023-03-03T03:30:55;101416.91;;;2.64;62.50
48015;BME280;33780;51.034;7.120;2023-03-03T03:33:21;101416.03;;;2.63;62.65
48015;BME280;33780;51.034;7.120;2023-03-03T03:35:47;101431.91;;;2.63;62.70
48015;BME280;33780;51.034;7.120;2023-03-03T03:38:13;101433.81;;;2.60;62.18
48015;BME280;33780;51.034;7.120;2023-03-03T03:40:38;101432.94;;;2.59;61.92
48015;BME280;33780;51.034;7.120;2023-03-03T03:43:04;101433.03;;;2.58;62.04
48015;BME280;33780;51.034;7.120;2023-03-03T03:45:29;101423.38;;;2.57;63.03
48015;BME280;33780;51.034;7.120;2023-03-03T03:47:55;101432.22;;;2.56;62.83
48015;BME280;33780;51.034;7.120;2023-03-03T03:50:20;101427.88;;;2.55;62.92
48015;BME280;33780;51.034;7.120;2023-03-03T03:52:45;101439.34;;;2.54;62.99
48015;BME280;33780;51.034;7.120;2023-03-03T03:55:11;101432.28;;;2.54;62.69
48015;BME280;33780;51.034;7.120;2023-03-03T03:57:36;101427.94;;;2.53;62.55
48015;BME280;33780;51.034;7.120;2023-03-03T04:00:03;101419.94;;;2.55;62.72
48015;BME280;33780;51.034;7.120;2023-03-03T04:02:29;101414.72;;;2.53;62.79
48015;BME280;33780;51.034;7.120;2023-03-03T04:04:54;101422.66;;;2.53;63.29
48015;BME280;33780;51.034;7.120;2023-03-03T04:07:19;101424.47;;;2.51;63.08
48015;BME280;33780;51.034;7.120;2023-03-03T04:09:44;101419.25;;;2.50;63.15
48015;BME280;33780;51.034;7.120;2023-03-03T04:12:10;101409.59;;;2.49;63.42
48015;BME280;33780;51.034;7.120;2023-03-03T04:14:36;101412.38;;;2.46;63.37
48015;BME280;33780;51.034;7.120;2023-03-03T04:17:01;101415.09;;;2.44;63.47
48015;BME280;33780;51.034;7.120;2023-03-03T04:19:27;101423.94;;;2.43;63.20
48015;BME280;33780;51.034;7.120;2023-03-03T04:21:52;101430.06;;;2.43;63.32
48015;BME280;33780;51.034;7.120;2023-03-03T04:24:17;101446.00;;;2.42;63.28
48015;BME280;33780;51.034;7.120;2023-03-03T04:26:43;101447.84;;;2.40;63.08
48015;BME280;33780;51.034;7.120;2023-03-03T04:29:09;101440.91;;;2.37;63.50
48015;BME280;33780;51.034;7.120;2023-03-03T04:31:34;101435.63;;;2.37;63.35
48015;BME280;33780;51.034;7.120;2023-03-03T04:33:59;101444.41;;;2.38;63.38
48015;BME280;33780;51.034;7.120;2023-03-03T04:36:24;101440.03;;;2.37;63.43
48015;BME280;33780;51.034;7.120;2023-03-03T04:38:50;101451.53;;;2.36;63.26
48015;BME280;33780;51.034;7.120;2023-03-03T04:41:15;101463.00;;;2.35;63.51
48015;BME280;33780;51.034;7.120;2023-03-03T04:43:41;101460.41;;;2.33;63.19
48015;BME280;33780;51.034;7.120;2023-03-03T04:46:06;101451.59;;;2.34;63.07
48015;BME280;33780;51.034;7.120;2023-03-03T04:48:31;101456.88;;;2.34;63.06
48015;BME280;33780;51.034;7.120;2023-03-03T04:50:57;101474.50;;;2.34;63.50
48015;BME280;33780;51.034;7.120;2023-03-03T04:53:22;101466.59;;;2.34;63.92
48015;BME280;33780;51.034;7.120;2023-03-03T04:55:52;101457.72;;;2.35;63.27
48015;BME280;33780;51.034;7.120;2023-03-03T04:58:18;101457.66;;;2.36;63.50
48015;BME280;33780;51.034;7.120;2023-03-03T05:00:44;101458.47;;;2.38;63.89
48015;BME280;33780;51.034;7.120;2023-03-03T05:03:11;101466.31;;;2.40;63.53
48015;BME280;33780;51.034;7.120;2023-03-03T05:05:36;101452.19;;;2.41;63.89
48015;BME280;33780;51.034;7.120;2023-03-03T05:08:02;101469.75;;;2.42;64.63
48015;BME280;33780;51.034;7.120;2023-03-03T05:10:27;101472.28;;;2.45;63.91
48015;BME280;33780;51.034;7.120;2023-03-03T05:12:52;101467.84;;;2.46;64.27
48015;BME280;33780;51.034;7.120;2023-03-03T05:15:18;101470.44;;;2.47;63.94
48015;BME280;33780;51.034;7.120;2023-03-03T05:17:43;101474.72;;;2.50;63.93
48015;BME280;33780;51.034;7.120;2023-03-03T05:20:09;101474.66;;;2.51;64.38
48015;BME280;33780;51.034;7.120;2023-03-03T05:22:35;101475.50;;;2.53;64.80
48015;BME280;33780;51.034;7.120;2023-03-03T05:25:00;101480.78;;;2.53;64.62
48015;BME280;33780;51.034;7.120;2023-03-03T05:27:25;101488.63;;;2.55;64.40
48015;BME280;33780;51.034;7.120;2023-03-03T05:29:51;101488.56;;;2.56;64.76
48015;BME280;33780;51.034;7.120;2023-03-03T05:32:16;101490.28;;;2.57;64.46
48015;BME280;33780;51.034;7.120;2023-03-03T05:34:41;101488.50;;;2.58;64.73
48015;BME280;33780;51.034;7.120;2023-03-03T05:37:07;101491.94;;;2.60;65.17
48015;BME280;33780;51.034;7.120;2023-03-03T05:39:33;101489.28;;;2.60;65.73
48015;BME280;33780;51.034;7.120;2023-03-03T05:41:58;101494.66;;;2.58;65.94
48015;BME280;33780;51.034;7.120;2023-03-03T05:44:24;101488.56;;;2.56;65.71
48015;BME280;33780;51.034;7.120;2023-03-03T05:46:50;101493.97;;;2.53;66.57
48015;BME280;33780;51.034;7.120;2023-03-03T05:49:15;101493.06;;;2.54;66.38
48015;BME280;33780;51.034;7.120;2023-03-03T05:51:40;101491.22;;;2.56;65.97
48015;BME280;33780;51.034;7.120;2023-03-03T05:54:05;101490.34;;;2.56;66.72
48015;BME280;33780;51.034;7.120;2023-03-03T05:56:31;101494.78;;;2.55;66.86
48015;BME280;33780;51.034;7.120;2023-03-03T05:58:56;101509.75;;;2.55;66.69
48015;BME280;33780;51.034;7.120;2023-03-03T06:01:53;101508.91;;;2.54;66.78
48015;BME280;33780;51.034;7.120;2023-03-03T06:04:24;101507.13;;;2.55;66.22
48015;BME280;33780;51.034;7.120;2023-03-03T06:07:06;101498.34;;;2.54;67.34
48015;BME280;33780;51.034;7.120;2023-03-03T06:09:55;101503.63;;;2.54;67.07
48015;BME280;33780;51.034;7.120;2023-03-03T06:12:42;101491.28;;;2.55;66.70
48015;BME280;33780;51.034;7.120;2023-03-03T06:15:31;101500.00;;;2.57;66.39
48015;BME280;33780;51.034;7.120;2023-03-03T06:17:56;101500.00;;;2.57;66.62
48015;BME280;33780;51.034;7.120;2023-03-03T06:20:21;101495.56;;;2.57;66.71
48015;BME280;33780;51.034;7.120;2023-03-03T06:22:47;101506.00;;;2.60;66.54
48015;BME280;33780;51.034;7.120;2023-03-03T06:25:12;101516.56;;;2.60;67.08
48015;BME280;33780;51.034;7.120;2023-03-03T06:27:37;101516.63;;;2.59;67.21
48015;BME280;33780;51.034;7.120;2023-03-03T06:30:03;101522.78;;;2.59;66.67
48015;BME280;33780;51.034;7.120;2023-03-03T06:32:29;101524.50;;;2.60;66.61
48015;BME280;33780;51.034;7.120;2023-03-03T06:34:54;101532.38;;;2.62;66.70
48015;BME280;33780;51.034;7.120;2023-03-03T06:37:19;101535.81;;;2.64;66.01
48015;BME280;33780;51.034;7.120;2023-03-03T06:39:44;101537.47;;;2.66;66.31
48015;BME280;33780;51.034;7.120;2023-03-03T06:42:10;101534.81;;;2.66;66.74
48015;BME280;33780;51.034;7.120;2023-03-03T06:44:35;101548.09;;;2.65;67.02
48015;BME280;33780;51.034;7.120;2023-03-03T06:47:01;101554.38;;;2.62;67.30
48015;BME280;33780;51.034;7.120;2023-03-03T06:49:27;101552.66;;;2.61;67.01
48015;BME280;33780;51.034;7.120;2023-03-03T06:51:52;101560.56;;;2.61;66.64
48015;BME280;33780;51.034;7.120;2023-03-03T06:54:20;101567.69;;;2.59;67.45
48015;BME280;33780;51.034;7.120;2023-03-03T06:56:48;101571.25;;;2.58;67.49
48015;BME280;33780;51.034;7.120;2023-03-03T06:59:17;101566.78;;;2.60;67.13
48015;BME280;33780;51.034;7.120;2023-03-03T07:01:44;101575.69;;;2.58;68.26
48015;BME280;33780;51.034;7.120;2023-03-03T07:04:26;101568.75;;;2.55;67.80
48015;BME280;33780;51.034;7.120;2023-03-03T07:06:54;101565.25;;;2.55;67.70
48015;BME280;33780;51.034;7.120;2023-03-03T07:09:26;101581.03;;;2.56;67.45
48015;BME280;33780;51.034;7.120;2023-03-03T07:11:56;101585.34;;;2.59;67.85
48015;BME280;33780;51.034;7.120;2023-03-03T07:14:24;101582.63;;;2.60;67.62
48015;BME280;33780;51.034;7.120;2023-03-03T07:16:59;101582.50;;;2.63;67.83
48015;BME280;33780;51.034;7.120;2023-03-03T07:19:35;101583.31;;;2.65;67.40
48015;BME280;33780;51.034;7.120;2023-03-03T07:22:14;101585.78;;;2.70;67.39
48015;BME280;33780;51.034;7.120;2023-03-03T07:24:41;101587.44;;;2.72;66.86
48015;BME280;33780;51.034;7.120;2023-03-03T07:29:36;101590.63;;;2.81;66.97
48015;BME280;33780;51.034;7.120;2023-03-03T07:32:34;101600.34;;;2.80;67.12
48015;BME280;33780;51.034;7.120;2023-03-03T07:34:56;101594.19;;;2.80;67.10
48015;BME280;33780;51.034;7.120;2023-03-03T07:37:29;101599.41;;;2.81;67.20
48015;BME280;33780;51.034;7.120;2023-03-03T07:39:56;101600.22;;;2.83;66.98
48015;BME280;33780;51.034;7.120;2023-03-03T07:42:36;101593.09;;;2.85;66.77
48015;BME280;33780;51.034;7.120;2023-03-03T07:45:20;101595.72;;;2.85;67.08
48015;BME280;33780;51.034;7.120;2023-03-03T07:47:47;101607.13;;;2.87;66.63
48015;BME280;33780;51.034;7.120;2023-03-03T07:50:15;101603.56;;;2.88;66.84
48015;BME280;33780;51.034;7.120;2023-03-03T07:52:49;101607.88;;;2.91;66.89
48015;BME280;33780;51.034;7.120;2023-03-03T07:55:33;101603.31;;;2.94;66.93
48015;BME280;33780;51.034;7.120;2023-03-03T08:03:23;101613.75;;;2.97;67.07
48015;BME280;33780;51.034;7.120;2023-03-03T08:05:50;101618.00;;;3.01;66.46
48015;BME280;33780;51.034;7.120;2023-03-03T08:08:29;101617.94;;;3.03;67.21
48015;BME280;33780;51.034;7.120;2023-03-03T08:10:57;101617.88;;;3.04;66.55
48015;BME280;33780;51.034;7.120;2023-03-03T08:13:27;101621.44;;;3.03;66.99
48015;BME280;33780;51.034;7.120;2023-03-03T08:18:45;101619.53;;;3.07;66.85
48015;BME280;33780;51.034;7.120;2023-03-03T08:21:13;101625.56;;;3.11;66.75
48015;BME280;33780;51.034;7.120;2023-03-03T08:23:38;101634.22;;;3.14;66.68
48015;BME280;33780;51.034;7.120;2023-03-03T08:26:04;101629.75;;;3.16;66.43
48015;BME280;33780;51.034;7.120;2023-03-03T08:28:29;101629.75;;;3.16;66.72
48015;BME280;33780;51.034;7.120;2023-03-03T08:30:54;101640.19;;;3.19;66.34
48015;BME280;33780;51.034;7.120;2023-03-03T08:33:20;101647.13;;;3.22;66.15
48015;BME280;33780;51.034;7.120;2023-03-03T08:35:45;101644.31;;;3.26;66.02
48015;BME280;33780;51.034;7.120;2023-03-03T08:38:13;101653.06;;;3.28;66.39
48015;BME280;33780;51.034;7.120;2023-03-03T08:40:39;101651.28;;;3.29;66.49
48015;BME280;33780;51.034;7.120;2023-03-03T08:43:04;101652.13;;;3.29;66.66
48015;BME280;33780;51.034;7.120;2023-03-03T08:45:31;101647.63;;;3.31;66.47
48015;BME280;33780;51.034;7.120;2023-03-03T08:47:56;101653.66;;;3.35;66.37
48015;BME280;33780;51.034;7.120;2023-03-03T08:50:23;101657.03;;;3.39;66.56
48015;BME280;33780;51.034;7.120;2023-03-03T08:52:49;101656.94;;;3.42;66.35
48015;BME280;33780;51.034;7.120;2023-03-03T08:55:14;101657.72;;;3.44;66.26
48015;BME280;33780;51.034;7.120;2023-03-03T08:57:40;101655.81;;;3.47;66.01
48015;BME280;33780;51.034;7.120;2023-03-03T09:00:08;101657.47;;;3.50;65.99
48015;BME280;33780;51.034;7.120;2023-03-03T09:02:34;101656.41;;;3.54;66.15
48015;BME280;33780;51.034;7.120;2023-03-03T09:05:00;101661.56;;;3.57;66.45
48015;BME280;33780;51.034;7.120;2023-03-03T09:07:25;101652.69;;;3.58;65.88
48015;BME280;33780;51.034;7.120;2023-03-03T09:09:50;101660.59;;;3.59;65.80
48015;BME280;33780;51.034;7.120;2023-03-03T09:12:18;101663.13;;;3.62;65.95
48015;BME280;33780;51.034;7.120;2023-03-03T09:14:47;101665.50;;;3.69;66.14
48015;BME280;33780;51.034;7.120;2023-03-03T09:17:31;101669.78;;;3.71;66.18
48015;BME280;33780;51.034;7.120;2023-03-03T09:20:20;101667.81;;;3.76;65.66
48015;BME280;33780;51.034;7.120;2023-03-03T09:22:47;101679.25;;;3.77;65.55
48015;BME280;33780;51.034;7.120;2023-03-03T09:27:52;101670.28;;;3.81;65.97
48015;BME280;33780;51.034;7.120;2023-03-03T09:32:46;101681.47;;;3.87;65.55
48015;BME280;33780;51.034;7.120;2023-03-03T09:35:34;101676.03;;;3.90;65.21
48015;BME280;33780;51.034;7.120;2023-03-03T09:38:01;101677.59;;;3.94;65.56
48015;BME280;33780;51.034;7.120;2023-03-03T09:43:05;101693.19;;;4.02;65.18
48015;BME280;33780;51.034;7.120;2023-03-03T09:48:19;101697.22;;;4.11;64.98
48015;BME280;33780;51.034;7.120;2023-03-03T09:51:05;101693.53;;;4.15;64.79
48015;BME280;33780;51.034;7.120;2023-03-03T09:53:59;101702.25;;;4.17;64.81
48015;BME280;33780;51.034;7.120;2023-03-03T09:56:36;101696.97;;;4.17;64.89
48015;BME280;33780;51.034;7.120;2023-03-03T10:02:29;101699.75;;;4.14;65.22
48015;BME280;33780;51.034;7.120;2023-03-03T10:05:22;101695.25;;;4.16;65.17
48015;BME280;33780;51.034;7.120;2023-03-03T10:18:54;101710.81;;;4.03;64.96
48015;BME280;33780;51.034;7.120;2023-03-03T10:21:38;101704.44;;;4.07;64.83
48015;BME280;33780;51.034;7.120;2023-03-03T10:24:26;101697.09;;;4.14;65.58
48015;BME280;33780;51.034;7.120;2023-03-03T10:27:27;101697.97;;;4.14;65.30
48015;BME280;33780;51.034;7.120;2023-03-03T10:32:48;101703.00;;;4.20;65.14
48015;BME280;33780;51.034;7.120;2023-03-03T10:40:59;101701.25;;;4.40;65.01
48015;BME280;33780;51.034;7.120;2023-03-03T10:57:10;101708.16;;;4.63;63.78
48015;BME280;33780;51.034;7.120;2023-03-03T10:59:51;101714.47;;;4.60;63.61
48015;BME280;33780;51.034;7.120;2023-03-03T11:05:33;101720.78;;;4.58;63.80
48015;BME280;33780;51.034;7.120;2023-03-03T11:08:15;101723.13;;;4.64;63.88
48015;BME280;33780;51.034;7.120;2023-03-03T11:11:05;101714.13;;;4.68;63.61
48015;BME280;33780;51.034;7.120;2023-03-03T11:13:40;101725.38;;;4.73;63.71
48015;BME280;33780;51.034;7.120;2023-03-03T11:16:21;101721.66;;;4.77;63.87
48015;BME280;33780;51.034;7.120;2023-03-03T11:27:38;101700.16;;;5.02;63.41
48015;BME280;33780;51.034;7.120;2023-03-03T11:41:00;101696.59;;;5.22;63.05
48015;BME280;33780;51.034;7.120;2023-03-03T11:43:46;101704.09;;;5.31;63.44
48015;BME280;33780;51.034;7.120;2023-03-03T11:46:21;101695.19;;;5.32;62.55
48015;BME280;33780;51.034;7.120;2023-03-03T11:51:40;101678.53;;;5.47;62.58
48015;BME280;33780;51.034;7.120;2023-03-03T11:54:16;101679.00;;;5.55;62.36
48015;BME280;33780;51.034;7.120;2023-03-03T11:56:45;101669.72;;;5.64;61.84
48015;BME280;33780;51.034;7.120;2023-03-03T11:59:29;101669.72;;;5.64;62.09
48015;BME280;33780;51.034;7.120;2023-03-03T12:02:11;101665.19;;;5.66;61.73
48015;BME280;33780;51.034;7.120;2023-03-03T12:05:05;101660.56;;;5.69;62.23
48015;BME280;33780;51.034;7.120;2023-03-03T12:10:26;101663.00;;;5.74;61.64
48015;BME280;33780;51.034;7.120;2023-03-03T12:16:14;101648.84;;;5.73;61.48
48015;BME280;33780;51.034;7.120;2023-03-03T12:18:55;101653.88;;;5.80;61.43
48015;BME280;33780;51.034;7.120;2023-03-03T12:21:56;101656.91;;;5.89;61.03
48015;BME280;33780;51.034;7.120;2023-03-03T12:27:39;101632.06;;;6.07;61.00
48015;BME280;33780;51.034;7.120;2023-03-03T12:36:21;101632.03;;;6.25;60.61
48015;BME280;33780;51.034;7.120;2023-03-03T12:38:56;101630.88;;;6.30;60.74
48015;BME280;33780;51.034;7.120;2023-03-03T12:41:48;101624.28;;;6.38;60.28
48015;BME280;33780;51.034;7.120;2023-03-03T12:56:40;101619.81;;;6.38;60.01
48015;BME280;33780;51.034;7.120;2023-03-03T12:59:44;101608.25;;;6.39;59.95
48015;BME280;33780;51.034;7.120;2023-03-03T13:02:31;101617.75;;;6.43;59.88
48015;BME280;33780;51.034;7.120;2023-03-03T13:08:21;101624.03;;;6.42;59.21
48015;BME280;33780;51.034;7.120;2023-03-03T13:14:22;101627.09;;;6.34;59.73
48015;BME280;33780;51.034;7.120;2023-03-03T13:20:02;101617.00;;;6.41;59.86
48015;BME280;33780;51.034;7.120;2023-03-03T13:22:54;101620.59;;;6.40;59.00
48015;BME280;33780;51.034;7.120;2023-03-03T13:28:12;101617.59;;;6.46;58.37
48015;BME280;33780;51.034;7.120;2023-03-03T13:30:48;101614.03;;;6.47;58.86
48015;BME280;33780;51.034;7.120;2023-03-03T13:33:29;101610.41;;;6.48;59.34
48015;BME280;33780;51.034;7.120;2023-03-03T13:36:01;101611.38;;;6.47;59.53
48015;BME280;33780;51.034;7.120;2023-03-03T13:38:34;101612.22;;;6.48;59.91
48015;BME280;33780;51.034;7.120;2023-03-03T13:41:21;101611.03;;;6.53;58.96
48015;BME280;33780;51.034;7.120;2023-03-03T13:44:01;101604.75;;;6.54;58.69
48015;BME280;33780;51.034;7.120;2023-03-03T13:46:39;101606.38;;;6.57;58.89
48015;BME280;33780;51.034;7.120;2023-03-03T13:49:56;101603.22;;;6.66;58.95
48015;BME280;33780;51.034;7.120;2023-03-03T13:52:26;101610.00;;;6.72;58.60
48015;BME280;33780;51.034;7.120;2023-03-03T13:58:02;101601.84;;;6.90;58.32
48015;BME280;33780;51.034;7.120;2023-03-03T14:00:48;101596.09;;;6.98;58.33
48015;BME280;33780;51.034;7.120;2023-03-03T14:03:39;101605.28;;;7.08;58.33
48015;BME280;33780;51.034;7.120;2023-03-03T14:06:14;101595.22;;;7.13;58.68
48015;BME280;33780;51.034;7.120;2023-03-03T14:09:05;101604.66;;;7.19;57.78
48015;BME280;33780;51.034;7.120;2023-03-03T14:11:50;101602.00;;;7.19;57.91
48015;BME280;33780;51.034;7.120;2023-03-03T14:17:31;101597.38;;;7.07;57.37
48015;BME280;33780;51.034;7.120;2023-03-03T14:22:44;101586.56;;;7.10;57.53
48015;BME280;33780;51.034;7.120;2023-03-03T14:25:13;101584.75;;;7.10;56.24
48015;BME280;33780;51.034;7.120;2023-03-03T14:35:41;101577.25;;;7.17;56.89
48015;BME280;33780;51.034;7.120;2023-03-03T14:40:36;101574.59;;;7.17;56.97
48015;BME280;33780;51.034;7.120;2023-03-03T14:43:25;101569.97;;;7.20;56.65
48015;BME280;33780;51.034;7.120;2023-03-03T14:45:52;101569.78;;;7.23;57.05
48015;BME280;33780;51.034;7.120;2023-03-03T14:48:21;101566.09;;;7.26;57.22
48015;BME280;33780;51.034;7.120;2023-03-03T14:50:57;101564.94;;;7.30;57.01
48015;BME280;33780;51.034;7.120;2023-03-03T14:53:35;101564.63;;;7.36;56.99
48015;BME280;33780;51.034;7.120;2023-03-03T14:56:21;101560.16;;;7.37;56.25
48015;BME280;33780;51.034;7.120;2023-03-03T14:59:11;101565.19;;;7.41;56.77
48015;BME280;33780;51.034;7.120;2023-03-03T15:01:42;101565.19;;;7.41;55.80
48015;BME280;33780;51.034;7.120;2023-03-03T15:09:27;101549.59;;;7.49;56.19
48015;BME280;33780;51.034;7.120;2023-03-03T15:12:00;101554.63;;;7.54;56.42
48015;BME280;33780;51.034;7.120;2023-03-03T15:14:37;101553.63;;;7.56;56.39
48015;BME280;33780;51.034;7.120;2023-03-03T15:17:23;101552.59;;;7.59;56.35
48015;BME280;33780;51.034;7.120;2023-03-03T15:19:51;101556.19;;;7.58;54.84
48015;BME280;33780;51.034;7.120;2023-03-03T15:25:00;101547.34;;;7.57;56.31
48015;BME280;33780;51.034;7.120;2023-03-03T15:28:13;101552.59;;;7.59;56.20
48015;BME280;33780;51.034;7.120;2023-03-03T15:30:54;101548.78;;;7.63;56.35
48015;BME280;33780;51.034;7.120;2023-03-03T15:33:34;101545.94;;;7.66;55.82
48015;BME280;33780;51.034;7.120;2023-03-03T15:36:11;101542.59;;;7.63;54.51
48015;BME280;33780;51.034;7.120;2023-03-03T15:39:07;101545.25;;;7.63;55.37
48015;BME280;33780;51.034;7.120;2023-03-03T15:41:43;101547.81;;;7.64;55.89
48015;BME280;33780;51.034;7.120;2023-03-03T15:44:29;101551.53;;;7.62;54.23
48015;BME280;33780;51.034;7.120;2023-03-03T15:47:33;101542.88;;;7.58;55.69
48015;BME280;33780;51.034;7.120;2023-03-03T15:53:04;101548.13;;;7.60;55.77
48015;BME280;33780;51.034;7.120;2023-03-03T15:55:48;101539.25;;;7.59;55.38
48015;BME280;33780;51.034;7.120;2023-03-03T16:01:40;101543.53;;;7.62;55.71
48015;BME280;33780;51.034;7.120;2023-03-03T16:04:11;101538.13;;;7.63;55.60
48015;BME280;33780;51.034;7.120;2023-03-03T16:11:54;101544.59;;;7.59;56.20